sensor_id;sensor_type;location;lat;lon;timestamp;P1;durP1;ratioP1;P2;durP2;ratioP2
71570;SDS011;59407;42.682;23.322;2023-10-31T00:02:11;6.93;;;4.07;;
71570;SDS011;59407;42.682;23.322;2023-10-31T00:04:36;10.47;;;4.50;;
71570;SDS011;59407;42.682;23.322;2023-10-31T00:07:02;7.45;;;4.80;;
71570;SDS011;59407;42.682;23.322;2023-10-31T00:09:28;9.10;;;4.13;;
71570;SDS011;59407;42.682;23.322;2023-10-31T00:11:54;10.20;;;4.60;;
71570;SDS011;59407;42.682;23.322;2023-10-31T00:14:19;10.50;;;3.60;;
71570;SDS011;59407;42.682;23.322;2023-10-31T00:16:44;8.43;;;4.00;;
71570;SDS011;59407;42.682;23.322;2023-10-31T00:19:10;7.03;;;3.72;;
71570;SDS011;59407;42.682;23.322;2023-10-31T00:21:35;8.63;;;4.37;;
71570;SDS011;59407;42.682;23.322;2023-10-31T00:24:01;6.53;;;3.83;;
71570;SDS011;59407;42.682;23.322;2023-10-31T00:26:28;9.23;;;4.15;;
71570;SDS011;59407;42.682;23.322;2023-10-31T00:28:54;9.88;;;4.40;;
71570;SDS011;59407;42.682;23.322;2023-10-31T00:31:20;8.43;;;4.20;;
71570;SDS011;59407;42.682;23.322;2023-10-31T00:33:45;9.43;;;4.18;;
71570;SDS011;59407;42.682;23.322;2023-10-31T00:36:11;10.23;;;3.50;;
71570;SDS011;59407;42.682;23.322;2023-10-31T00:38:38;7.75;;;3.75;;
71570;SDS011;59407;42.682;23.322;2023-10-31T00:41:03;6.60;;;3.70;;
71570;SDS011;59407;42.682;23.322;2023-10-31T00:43:29;9.40;;;3.87;;
71570;SDS011;59407;42.682;23.322;2023-10-31T00:45:54;5.95;;;3.50;;
71570;SDS011;59407;42.682;23.322;2023-10-31T00:48:20;7.70;;;3.83;;
71570;SDS011;59407;42.682;23.322;2023-10-31T00:50:46;9.53;;;4.00;;
71570;SDS011;59407;42.682;23.322;2023-10-31T00:53:11;9.65;;;3.40;;
71570;SDS011;59407;42.682;23.322;2023-10-31T00:55:38;5.77;;;3.50;;
71570;SDS011;59407;42.682;23.322;2023-10-31T00:58:04;11.32;;;4.30;;
71570;SDS011;59407;42.682;23.322;2023-10-31T01:00:30;8.00;;;3.70;;
71570;SDS011;59407;42.682;23.322;2023-10-31T01:02:56;7.82;;;4.10;;
71570;SDS011;59407;42.682;23.322;2023-10-31T01:05:22;10.97;;;4.20;;
71570;SDS011;59407;42.682;23.322;2023-10-31T01:07:47;9.80;;;4.40;;
71570;SDS011;59407;42.682;23.322;2023-10-31T01:10:13;8.90;;;3.80;;
71570;SDS011;59407;42.682;23.322;2023-10-31T01:12:38;6.60;;;3.80;;
71570;SDS011;59407;42.682;23.322;2023-10-31T01:15:03;9.67;;;4.30;;
71570;SDS011;59407;42.682;23.322;2023-10-31T01:17:32;7.82;;;4.40;;
71570;SDS011;59407;42.682;23.322;2023-10-31T01:19:58;9.15;;;4.13;;
71570;SDS011;59407;42.682;23.322;2023-10-31T01:22:23;6.70;;;3.23;;
71570;SDS011;59407;42.682;23.322;2023-10-31T01:24:48;7.70;;;3.83;;
71570;SDS011;59407;42.682;23.322;2023-10-31T01:27:14;9.03;;;3.57;;
71570;SDS011;59407;42.682;23.322;2023-10-31T01:29:39;8.27;;;3.93;;
71570;SDS011;59407;42.682;23.322;2023-10-31T01:32:05;5.93;;;3.83;;
71570;SDS011;59407;42.682;23.322;2023-10-31T01:34:30;7.47;;;3.63;;
71570;SDS011;59407;42.682;23.322;2023-10-31T01:36:58;9.65;;;4.20;;
71570;SDS011;59407;42.682;23.322;2023-10-31T01:39:24;7.68;;;4.28;;
71570;SDS011;59407;42.682;23.322;2023-10-31T01:41:49;8.00;;;4.00;;
71570;SDS011;59407;42.682;23.322;2023-10-31T01:44:15;7.40;;;3.50;;
71570;SDS011;59407;42.682;23.322;2023-10-31T01:46:40;9.10;;;3.90;;
71570;SDS011;59407;42.682;23.322;2023-10-31T01:49:05;8.40;;;4.10;;
71570;SDS011;59407;42.682;23.322;2023-10-31T01:51:32;6.85;;;3.90;;
71570;SDS011;59407;42.682;23.322;2023-10-31T01:53:58;7.80;;;3.83;;
71570;SDS011;59407;42.682;23.322;2023-10-31T01:56:24;9.10;;;4.55;;
71570;SDS011;59407;42.682;23.322;2023-10-31T01:58:50;6.45;;;4.10;;
71570;SDS011;59407;42.682;23.322;2023-10-31T02:01:17;11.38;;;4.40;;
71570;SDS011;59407;42.682;23.322;2023-10-31T02:03:43;6.53;;;4.00;;
71570;SDS011;59407;42.682;23.322;2023-10-31T02:06:08;9.68;;;4.47;;
71570;SDS011;59407;42.682;23.322;2023-10-31T02:08:34;7.57;;;3.93;;
71570;SDS011;59407;42.682;23.322;2023-10-31T02:10:59;7.63;;;4.13;;
71570;SDS011;59407;42.682;23.322;2023-10-31T02:13:25;7.33;;;4.87;;
71570;SDS011;59407;42.682;23.322;2023-10-31T02:15:50;11.03;;;4.93;;
71570;SDS011;59407;42.682;23.322;2023-10-31T02:18:16;11.10;;;4.83;;
71570;SDS011;59407;42.682;23.322;2023-10-31T02:20:43;10.27;;;4.40;;
71570;SDS011;59407;42.682;23.322;2023-10-31T02:23:09;7.43;;;4.72;;
71570;SDS011;59407;42.682;23.322;2023-10-31T02:25:34;9.93;;;4.00;;
71570;SDS011;59407;42.682;23.322;2023-10-31T02:28:00;9.73;;;4.80;;
71570;SDS011;59407;42.682;23.322;2023-10-31T02:30:26;6.93;;;4.13;;
71570;SDS011;59407;42.682;23.322;2023-10-31T02:32:51;7.32;;;4.50;;
71570;SDS011;59407;42.682;23.322;2023-10-31T02:35:17;9.60;;;4.87;;
71570;SDS011;59407;42.682;23.322;2023-10-31T02:37:46;10.35;;;4.60;;
71570;SDS011;59407;42.682;23.322;2023-10-31T02:40:12;8.18;;;4.55;;
71570;SDS011;59407;42.682;23.322;2023-10-31T02:42:37;10.40;;;4.72;;
71570;SDS011;59407;42.682;23.322;2023-10-31T02:45:04;9.07;;;4.60;;
71570;SDS011;59407;42.682;23.322;2023-10-31T02:47:30;12.05;;;5.78;;
71570;SDS011;59407;42.682;23.322;2023-10-31T02:49:56;8.00;;;4.50;;
71570;SDS011;59407;42.682;23.322;2023-10-31T02:52:21;7.50;;;4.72;;
71570;SDS011;59407;42.682;23.322;2023-10-31T02:54:46;9.17;;;5.27;;
71570;SDS011;59407;42.682;23.322;2023-10-31T02:57:12;9.07;;;5.13;;
71570;SDS011;59407;42.682;23.322;2023-10-31T02:59:37;9.00;;;5.07;;
71570;SDS011;59407;42.682;23.322;2023-10-31T03:02:02;8.43;;;4.53;;
71570;SDS011;59407;42.682;23.322;2023-10-31T03:04:28;8.15;;;4.65;;
71570;SDS011;59407;42.682;23.322;2023-10-31T03:06:53;9.90;;;5.10;;
71570;SDS011;59407;42.682;23.322;2023-10-31T03:09:19;8.67;;;4.63;;
71570;SDS011;59407;42.682;23.322;2023-10-31T03:11:46;9.68;;;4.68;;
71570;SDS011;59407;42.682;23.322;2023-10-31T03:14:11;8.70;;;5.17;;
71570;SDS011;59407;42.682;23.322;2023-10-31T03:16:36;6.90;;;4.67;;
71570;SDS011;59407;42.682;23.322;2023-10-31T03:19:03;11.10;;;4.85;;
71570;SDS011;59407;42.682;23.322;2023-10-31T03:21:29;8.50;;;5.00;;
71570;SDS011;59407;42.682;23.322;2023-10-31T03:23:54;8.73;;;4.40;;
71570;SDS011;59407;42.682;23.322;2023-10-31T03:26:20;8.83;;;4.50;;
71570;SDS011;59407;42.682;23.322;2023-10-31T03:28:46;11.52;;;4.85;;
71570;SDS011;59407;42.682;23.322;2023-10-31T03:31:12;8.20;;;4.90;;
71570;SDS011;59407;42.682;23.322;2023-10-31T03:33:38;9.67;;;4.87;;
71570;SDS011;59407;42.682;23.322;2023-10-31T03:36:04;7.10;;;4.90;;
71570;SDS011;59407;42.682;23.322;2023-10-31T03:38:30;8.10;;;5.18;;
71570;SDS011;59407;42.682;23.322;2023-10-31T03:40:56;11.32;;;5.45;;
71570;SDS011;59407;42.682;23.322;2023-10-31T03:43:21;8.33;;;5.20;;
71570;SDS011;59407;42.682;23.322;2023-10-31T03:45:46;9.07;;;5.13;;
71570;SDS011;59407;42.682;23.322;2023-10-31T03:48:18;14.18;;;5.68;;
71570;SDS011;59407;42.682;23.322;2023-10-31T03:50:43;10.80;;;6.75;;
71570;SDS011;59407;42.682;23.322;2023-10-31T03:53:09;14.10;;;6.33;;
71570;SDS011;59407;42.682;23.322;2023-10-31T03:55:35;12.90;;;6.75;;
71570;SDS011;59407;42.682;23.322;2023-10-31T03:58:01;12.50;;;6.93;;
71570;SDS011;59407;42.682;23.322;2023-10-31T04:00:26;15.90;;;7.27;;
71570;SDS011;59407;42.682;23.322;2023-10-31T04:02:51;13.50;;;7.60;;
71570;SDS011;59407;42.682;23.322;2023-10-31T04:05:17;15.00;;;7.23;;
71570;SDS011;59407;42.682;23.322;2023-10-31T04:07:43;14.30;;;7.22;;
71570;SDS011;59407;42.682;23.322;2023-10-31T04:10:09;12.70;;;6.90;;
71570;SDS011;59407;42.682;23.322;2023-10-31T04:12:34;12.60;;;6.40;;
71570;SDS011;59407;42.682;23.322;2023-10-31T04:15:00;14.50;;;7.80;;
71570;SDS011;59407;42.682;23.322;2023-10-31T04:17:27;12.67;;;7.43;;
71570;SDS011;59407;42.682;23.322;2023-10-31T04:19:53;12.70;;;7.78;;
71570;SDS011;59407;42.682;23.322;2023-10-31T04:22:19;17.63;;;8.53;;
71570;SDS011;59407;42.682;23.322;2023-10-31T04:24:44;10.30;;;6.65;;
71570;SDS011;59407;42.682;23.322;2023-10-31T04:27:11;14.83;;;7.70;;
71570;SDS011;59407;42.682;23.322;2023-10-31T04:29:37;12.07;;;7.35;;
71570;SDS011;59407;42.682;23.322;2023-10-31T04:32:03;14.10;;;7.67;;
71570;SDS011;59407;42.682;23.322;2023-10-31T04:34:29;13.45;;;7.10;;
71570;SDS011;59407;42.682;23.322;2023-10-31T04:36:55;13.17;;;6.90;;
71570;SDS011;59407;42.682;23.322;2023-10-31T04:39:21;11.17;;;6.20;;
71570;SDS011;59407;42.682;23.322;2023-10-31T04:41:46;15.00;;;6.80;;
71570;SDS011;59407;42.682;23.322;2023-10-31T04:44:12;11.63;;;7.00;;
71570;SDS011;59407;42.682;23.322;2023-10-31T04:46:37;11.73;;;6.97;;
71570;SDS011;59407;42.682;23.322;2023-10-31T04:49:03;14.10;;;7.45;;
71570;SDS011;59407;42.682;23.322;2023-10-31T04:51:32;13.57;;;7.20;;
71570;SDS011;59407;42.682;23.322;2023-10-31T04:54:02;14.20;;;7.97;;
71570;SDS011;59407;42.682;23.322;2023-10-31T04:56:28;10.77;;;7.43;;
71570;SDS011;59407;42.682;23.322;2023-10-31T04:59:00;13.65;;;7.00;;
71570;SDS011;59407;42.682;23.322;2023-10-31T05:01:27;13.77;;;7.87;;
71570;SDS011;59407;42.682;23.322;2023-10-31T05:03:52;18.30;;;7.82;;
71570;SDS011;59407;42.682;23.322;2023-10-31T05:06:19;14.32;;;7.78;;
71570;SDS011;59407;42.682;23.322;2023-10-31T05:08:45;14.43;;;7.70;;
71570;SDS011;59407;42.682;23.322;2023-10-31T05:11:11;13.50;;;7.33;;
71570;SDS011;59407;42.682;23.322;2023-10-31T05:13:38;14.25;;;7.47;;
71570;SDS011;59407;42.682;23.322;2023-10-31T05:16:05;14.75;;;7.15;;
71570;SDS011;59407;42.682;23.322;2023-10-31T05:18:31;16.40;;;7.67;;
71570;SDS011;59407;42.682;23.322;2023-10-31T05:20:56;14.03;;;7.27;;
71570;SDS011;59407;42.682;23.322;2023-10-31T05:23:22;14.83;;;7.60;;
71570;SDS011;59407;42.682;23.322;2023-10-31T05:25:47;18.47;;;9.10;;
71570;SDS011;59407;42.682;23.322;2023-10-31T05:28:12;20.03;;;8.40;;
71570;SDS011;59407;42.682;23.322;2023-10-31T05:30:39;16.38;;;8.70;;
71570;SDS011;59407;42.682;23.322;2023-10-31T05:33:05;16.20;;;8.53;;
71570;SDS011;59407;42.682;23.322;2023-10-31T05:35:30;13.75;;;8.23;;
71570;SDS011;59407;42.682;23.322;2023-10-31T05:37:56;12.87;;;8.47;;
71570;SDS011;59407;42.682;23.322;2023-10-31T05:40:23;14.93;;;8.23;;
71570;SDS011;59407;42.682;23.322;2023-10-31T05:42:51;14.55;;;9.00;;
71570;SDS011;59407;42.682;23.322;2023-10-31T05:45:16;14.07;;;7.60;;
71570;SDS011;59407;42.682;23.322;2023-10-31T05:47:42;14.70;;;8.10;;
71570;SDS011;59407;42.682;23.322;2023-10-31T05:50:07;16.50;;;8.55;;
71570;SDS011;59407;42.682;23.322;2023-10-31T05:52:34;16.83;;;8.43;;
71570;SDS011;59407;42.682;23.322;2023-10-31T05:55:00;18.80;;;9.55;;
71570;SDS011;59407;42.682;23.322;2023-10-31T05:57:27;16.23;;;9.00;;
71570;SDS011;59407;42.682;23.322;2023-10-31T05:59:53;24.42;;;10.63;;
71570;SDS011;59407;42.682;23.322;2023-10-31T06:02:19;13.35;;;8.18;;
71570;SDS011;59407;42.682;23.322;2023-10-31T06:04:44;17.37;;;8.63;;
71570;SDS011;59407;42.682;23.322;2023-10-31T06:07:10;21.00;;;11.10;;
71570;SDS011;59407;42.682;23.322;2023-10-31T06:09:36;14.20;;;8.43;;
71570;SDS011;59407;42.682;23.322;2023-10-31T06:12:01;14.18;;;8.65;;
71570;SDS011;59407;42.682;23.322;2023-10-31T06:14:27;15.57;;;8.50;;
71570;SDS011;59407;42.682;23.322;2023-10-31T06:16:53;15.57;;;9.95;;
71570;SDS011;59407;42.682;23.322;2023-10-31T06:19:19;16.75;;;8.40;;
71570;SDS011;59407;42.682;23.322;2023-10-31T06:21:45;17.73;;;9.40;;
71570;SDS011;59407;42.682;23.322;2023-10-31T06:24:11;17.88;;;10.25;;
71570;SDS011;59407;42.682;23.322;2023-10-31T06:26:36;16.93;;;9.03;;
71570;SDS011;59407;42.682;23.322;2023-10-31T06:29:01;15.50;;;8.83;;
71570;SDS011;59407;42.682;23.322;2023-10-31T06:31:27;21.13;;;10.47;;
71570;SDS011;59407;42.682;23.322;2023-10-31T06:33:52;13.87;;;9.63;;
71570;SDS011;59407;42.682;23.322;2023-10-31T06:36:18;17.73;;;10.23;;
71570;SDS011;59407;42.682;23.322;2023-10-31T06:38:45;16.03;;;9.63;;
71570;SDS011;59407;42.682;23.322;2023-10-31T06:41:11;19.35;;;9.35;;
71570;SDS011;59407;42.682;23.322;2023-10-31T06:43:37;15.07;;;9.57;;
71570;SDS011;59407;42.682;23.322;2023-10-31T06:46:03;16.53;;;9.00;;
71570;SDS011;59407;42.682;23.322;2023-10-31T06:48:30;14.30;;;9.18;;
71570;SDS011;59407;42.682;23.322;2023-10-31T06:50:55;15.77;;;9.13;;
71570;SDS011;59407;42.682;23.322;2023-10-31T06:53:21;15.10;;;10.10;;
71570;SDS011;59407;42.682;23.322;2023-10-31T06:55:46;16.35;;;10.20;;
71570;SDS011;59407;42.682;23.322;2023-10-31T06:58:12;13.43;;;8.93;;
71570;SDS011;59407;42.682;23.322;2023-10-31T07:00:37;20.77;;;10.47;;
71570;SDS011;59407;42.682;23.322;2023-10-31T07:03:03;18.60;;;9.00;;
71570;SDS011;59407;42.682;23.322;2023-10-31T07:05:34;14.85;;;10.18;;
71570;SDS011;59407;42.682;23.322;2023-10-31T07:08:00;18.05;;;10.23;;
71570;SDS011;59407;42.682;23.322;2023-10-31T07:10:26;15.80;;;9.97;;
71570;SDS011;59407;42.682;23.322;2023-10-31T07:12:51;16.37;;;9.27;;
71570;SDS011;59407;42.682;23.322;2023-10-31T07:15:17;17.73;;;10.83;;
71570;SDS011;59407;42.682;23.322;2023-10-31T07:17:42;13.70;;;8.50;;
71570;SDS011;59407;42.682;23.322;2023-10-31T07:20:07;18.20;;;9.40;;
71570;SDS011;59407;42.682;23.322;2023-10-31T07:22:33;16.33;;;9.73;;
71570;SDS011;59407;42.682;23.322;2023-10-31T07:24:59;14.73;;;10.07;;
71570;SDS011;59407;42.682;23.322;2023-10-31T07:27:27;19.08;;;10.82;;
71570;SDS011;59407;42.682;23.322;2023-10-31T07:29:53;16.20;;;10.07;;
71570;SDS011;59407;42.682;23.322;2023-10-31T07:32:19;20.45;;;10.23;;
71570;SDS011;59407;42.682;23.322;2023-10-31T07:34:44;21.13;;;10.93;;
71570;SDS011;59407;42.682;23.322;2023-10-31T07:37:10;15.27;;;10.00;;
71570;SDS011;59407;42.682;23.322;2023-10-31T07:39:36;17.73;;;10.35;;
71570;SDS011;59407;42.682;23.322;2023-10-31T07:42:01;21.17;;;9.83;;
71570;SDS011;59407;42.682;23.322;2023-10-31T07:44:26;18.13;;;9.97;;
71570;SDS011;59407;42.682;23.322;2023-10-31T07:46:52;15.60;;;9.60;;
71570;SDS011;59407;42.682;23.322;2023-10-31T07:49:17;17.15;;;9.70;;
71570;SDS011;59407;42.682;23.322;2023-10-31T07:51:43;16.67;;;9.90;;
71570;SDS011;59407;42.682;23.322;2023-10-31T07:54:08;17.03;;;8.40;;
71570;SDS011;59407;42.682;23.322;2023-10-31T07:56:34;13.63;;;7.63;;
71570;SDS011;59407;42.682;23.322;2023-10-31T07:59:02;11.65;;;6.80;;
71570;SDS011;59407;42.682;23.322;2023-10-31T08:01:27;12.68;;;6.90;;
71570;SDS011;59407;42.682;23.322;2023-10-31T08:03:53;12.33;;;6.77;;
71570;SDS011;59407;42.682;23.322;2023-10-31T08:06:20;11.90;;;6.57;;
71570;SDS011;59407;42.682;23.322;2023-10-31T08:08:46;11.57;;;7.77;;
71570;SDS011;59407;42.682;23.322;2023-10-31T08:11:13;11.90;;;7.03;;
71570;SDS011;59407;42.682;23.322;2023-10-31T08:13:38;11.60;;;7.40;;
71570;SDS011;59407;42.682;23.322;2023-10-31T08:16:05;11.35;;;6.68;;
71570;SDS011;59407;42.682;23.322;2023-10-31T08:18:32;12.90;;;6.93;;
71570;SDS011;59407;42.682;23.322;2023-10-31T08:20:57;11.82;;;6.22;;
71570;SDS011;59407;42.682;23.322;2023-10-31T08:23:24;12.07;;;5.90;;
71570;SDS011;59407;42.682;23.322;2023-10-31T08:25:50;9.38;;;5.93;;
71570;SDS011;59407;42.682;23.322;2023-10-31T08:28:15;12.63;;;7.10;;
71570;SDS011;59407;42.682;23.322;2023-10-31T08:30:41;8.02;;;5.57;;
71570;SDS011;59407;42.682;23.322;2023-10-31T08:33:07;11.57;;;5.73;;
71570;SDS011;59407;42.682;23.322;2023-10-31T08:35:32;10.10;;;5.95;;
71570;SDS011;59407;42.682;23.322;2023-10-31T08:38:00;10.33;;;6.20;;
71570;SDS011;59407;42.682;23.322;2023-10-31T08:40:25;9.68;;;5.47;;
71570;SDS011;59407;42.682;23.322;2023-10-31T08:42:51;9.67;;;5.57;;
71570;SDS011;59407;42.682;23.322;2023-10-31T08:45:17;8.75;;;5.38;;
71570;SDS011;59407;42.682;23.322;2023-10-31T08:47:42;8.10;;;5.00;;
71570;SDS011;59407;42.682;23.322;2023-10-31T08:50:08;8.25;;;4.70;;
71570;SDS011;59407;42.682;23.322;2023-10-31T08:52:34;10.30;;;5.53;;
71570;SDS011;59407;42.682;23.322;2023-10-31T08:54:59;11.07;;;6.38;;
71570;SDS011;59407;42.682;23.322;2023-10-31T08:57:25;8.97;;;4.90;;
71570;SDS011;59407;42.682;23.322;2023-10-31T08:59:50;8.23;;;4.57;;
71570;SDS011;59407;42.682;23.322;2023-10-31T09:02:16;7.43;;;4.60;;
71570;SDS011;59407;42.682;23.322;2023-10-31T09:04:41;5.90;;;3.70;;
71570;SDS011;59407;42.682;23.322;2023-10-31T09:07:07;9.40;;;3.90;;
71570;SDS011;59407;42.682;23.322;2023-10-31T09:09:32;7.97;;;4.40;;
71570;SDS011;59407;42.682;23.322;2023-10-31T09:12:01;9.60;;;4.30;;
71570;SDS011;59407;42.682;23.322;2023-10-31T09:14:28;7.70;;;3.85;;
71570;SDS011;59407;42.682;23.322;2023-10-31T09:16:56;7.43;;;4.57;;
71570;SDS011;59407;42.682;23.322;2023-10-31T09:19:22;8.27;;;4.10;;
71570;SDS011;59407;42.682;23.322;2023-10-31T09:21:47;8.23;;;4.32;;
71570;SDS011;59407;42.682;23.322;2023-10-31T09:24:13;8.93;;;4.30;;
71570;SDS011;59407;42.682;23.322;2023-10-31T09:26:42;8.13;;;4.13;;
71570;SDS011;59407;42.682;23.322;2023-10-31T09:29:08;9.75;;;4.78;;
71570;SDS011;59407;42.682;23.322;2023-10-31T09:31:35;6.85;;;3.75;;
71570;SDS011;59407;42.682;23.322;2023-10-31T09:34:02;10.52;;;7.22;;
71570;SDS011;59407;42.682;23.322;2023-10-31T09:36:31;9.18;;;4.32;;
71570;SDS011;59407;42.682;23.322;2023-10-31T09:38:58;8.90;;;4.27;;
71570;SDS011;59407;42.682;23.322;2023-10-31T09:41:24;8.50;;;4.50;;
71570;SDS011;59407;42.682;23.322;2023-10-31T09:43:51;7.28;;;3.83;;
71570;SDS011;59407;42.682;23.322;2023-10-31T09:46:16;6.93;;;3.83;;
71570;SDS011;59407;42.682;23.322;2023-10-31T09:48:43;8.18;;;4.28;;
71570;SDS011;59407;42.682;23.322;2023-10-31T09:51:09;8.27;;;4.60;;
71570;SDS011;59407;42.682;23.322;2023-10-31T09:53:38;7.70;;;4.18;;
71570;SDS011;59407;42.682;23.322;2023-10-31T09:56:06;9.63;;;4.72;;
71570;SDS011;59407;42.682;23.322;2023-10-31T09:58:33;8.15;;;4.25;;
71570;SDS011;59407;42.682;23.322;2023-10-31T10:00:59;7.10;;;4.20;;
71570;SDS011;59407;42.682;23.322;2023-10-31T10:03:24;8.93;;;4.70;;
71570;SDS011;59407;42.682;23.322;2023-10-31T10:05:52;14.20;;;5.30;;
71570;SDS011;59407;42.682;23.322;2023-10-31T10:08:19;15.20;;;4.77;;
71570;SDS011;59407;42.682;23.322;2023-10-31T10:10:45;9.18;;;4.47;;
71570;SDS011;59407;42.682;23.322;2023-10-31T10:13:10;8.50;;;5.25;;
71570;SDS011;59407;42.682;23.322;2023-10-31T10:15:48;10.63;;;5.40;;
71570;SDS011;59407;42.682;23.322;2023-10-31T10:18:29;8.77;;;5.22;;
71570;SDS011;59407;42.682;23.322;2023-10-31T10:23:24;8.57;;;3.95;;
71570;SDS011;59407;42.682;23.322;2023-10-31T10:25:51;7.55;;;4.35;;
71570;SDS011;59407;42.682;23.322;2023-10-31T10:28:17;7.00;;;3.73;;
71570;SDS011;59407;42.682;23.322;2023-10-31T10:30:49;9.00;;;4.55;;
71570;SDS011;59407;42.682;23.322;2023-10-31T10:33:15;6.72;;;3.58;;
71570;SDS011;59407;42.682;23.322;2023-10-31T10:35:41;8.40;;;4.47;;
71570;SDS011;59407;42.682;23.322;2023-10-31T10:38:09;9.03;;;3.37;;
71570;SDS011;59407;42.682;23.322;2023-10-31T10:40:36;9.48;;;3.72;;
71570;SDS011;59407;42.682;23.322;2023-10-31T10:43:03;7.00;;;3.50;;
71570;SDS011;59407;42.682;23.322;2023-10-31T10:45:34;8.05;;;3.50;;
71570;SDS011;59407;42.682;23.322;2023-10-31T10:48:04;6.20;;;3.30;;
71570;SDS011;59407;42.682;23.322;2023-10-31T10:50:30;6.50;;;3.55;;
71570;SDS011;59407;42.682;23.322;2023-10-31T10:55:57;7.80;;;3.53;;
71570;SDS011;59407;42.682;23.322;2023-10-31T11:01:48;6.77;;;3.03;;
71570;SDS011;59407;42.682;23.322;2023-10-31T11:11:01;8.13;;;2.97;;
71570;SDS011;59407;42.682;23.322;2023-10-31T11:13:34;5.27;;;2.33;;
71570;SDS011;59407;42.682;23.322;2023-10-31T11:16:02;7.10;;;2.58;;
71570;SDS011;59407;42.682;23.322;2023-10-31T11:19:11;4.50;;;2.15;;
71570;SDS011;59407;42.682;23.322;2023-10-31T11:25:09;3.60;;;2.30;;
71570;SDS011;59407;42.682;23.322;2023-10-31T11:27:37;5.80;;;2.28;;
71570;SDS011;59407;42.682;23.322;2023-10-31T11:30:06;5.68;;;2.42;;
71570;SDS011;59407;42.682;23.322;2023-10-31T11:32:33;5.95;;;2.15;;
71570;SDS011;59407;42.682;23.322;2023-10-31T11:34:59;5.03;;;2.03;;
71570;SDS011;59407;42.682;23.322;2023-10-31T11:37:32;5.63;;;2.10;;
71570;SDS011;59407;42.682;23.322;2023-10-31T11:40:32;4.10;;;2.08;;
71570;SDS011;59407;42.682;23.322;2023-10-31T11:42:52;6.43;;;3.00;;
71570;SDS011;59407;42.682;23.322;2023-10-31T11:45:40;7.88;;;4.32;;
71570;SDS011;59407;42.682;23.322;2023-10-31T11:48:13;16.33;;;8.32;;
71570;SDS011;59407;42.682;23.322;2023-10-31T11:50:39;5.05;;;2.42;;
71570;SDS011;59407;42.682;23.322;2023-10-31T11:53:11;6.72;;;2.45;;
71570;SDS011;59407;42.682;23.322;2023-10-31T11:55:42;7.27;;;3.00;;
71570;SDS011;59407;42.682;23.322;2023-10-31T11:58:41;5.03;;;2.13;;
71570;SDS011;59407;42.682;23.322;2023-10-31T12:01:03;5.60;;;2.05;;
71570;SDS011;59407;42.682;23.322;2023-10-31T12:03:36;4.15;;;2.30;;
71570;SDS011;59407;42.682;23.322;2023-10-31T12:06:03;4.70;;;2.03;;
71570;SDS011;59407;42.682;23.322;2023-10-31T12:11:14;4.57;;;1.98;;
71570;SDS011;59407;42.682;23.322;2023-10-31T12:13:42;4.23;;;2.00;;
71570;SDS011;59407;42.682;23.322;2023-10-31T12:16:16;4.85;;;2.20;;
71570;SDS011;59407;42.682;23.322;2023-10-31T12:18:42;7.38;;;2.47;;
71570;SDS011;59407;42.682;23.322;2023-10-31T12:21:07;6.43;;;2.23;;
71570;SDS011;59407;42.682;23.322;2023-10-31T12:23:33;5.22;;;2.15;;
71570;SDS011;59407;42.682;23.322;2023-10-31T12:25:59;5.03;;;2.17;;
71570;SDS011;59407;42.682;23.322;2023-10-31T12:28:24;5.67;;;2.40;;
71570;SDS011;59407;42.682;23.322;2023-10-31T12:30:52;6.13;;;2.33;;
71570;SDS011;59407;42.682;23.322;2023-10-31T12:33:24;5.55;;;2.40;;
71570;SDS011;59407;42.682;23.322;2023-10-31T12:35:52;4.95;;;2.22;;
71570;SDS011;59407;42.682;23.322;2023-10-31T12:38:18;4.93;;;2.30;;
71570;SDS011;59407;42.682;23.322;2023-10-31T12:40:44;5.28;;;2.42;;
71570;SDS011;59407;42.682;23.322;2023-10-31T12:43:10;6.50;;;2.20;;
71570;SDS011;59407;42.682;23.322;2023-10-31T12:45:36;5.73;;;2.43;;
71570;SDS011;59407;42.682;23.322;2023-10-31T12:48:08;6.32;;;2.47;;
71570;SDS011;59407;42.682;23.322;2023-10-31T12:50:35;5.43;;;2.55;;
71570;SDS011;59407;42.682;23.322;2023-10-31T12:53:03;8.10;;;2.80;;
71570;SDS011;59407;42.682;23.322;2023-10-31T12:55:29;5.23;;;2.23;;
71570;SDS011;59407;42.682;23.322;2023-10-31T12:57:55;7.85;;;2.50;;
71570;SDS011;59407;42.682;23.322;2023-10-31T13:00:22;6.18;;;2.35;;
71570;SDS011;59407;42.682;23.322;2023-10-31T13:02:51;5.43;;;2.20;;
71570;SDS011;59407;42.682;23.322;2023-10-31T13:05:17;6.47;;;2.47;;
71570;SDS011;59407;42.682;23.322;2023-10-31T13:07:49;6.80;;;2.38;;
71570;SDS011;59407;42.682;23.322;2023-10-31T13:10:16;6.78;;;2.55;;
71570;SDS011;59407;42.682;23.322;2023-10-31T13:12:46;6.07;;;2.60;;
71570;SDS011;59407;42.682;23.322;2023-10-31T13:15:14;5.23;;;2.20;;
71570;SDS011;59407;42.682;23.322;2023-10-31T13:17:41;6.00;;;2.38;;
71570;SDS011;59407;42.682;23.322;2023-10-31T13:20:09;4.72;;;2.38;;
71570;SDS011;59407;42.682;23.322;2023-10-31T13:22:38;7.30;;;2.75;;
71570;SDS011;59407;42.682;23.322;2023-10-31T13:25:04;6.15;;;2.88;;
71570;SDS011;59407;42.682;23.322;2023-10-31T13:27:42;7.47;;;2.80;;
71570;SDS011;59407;42.682;23.322;2023-10-31T13:30:09;7.30;;;2.95;;
71570;SDS011;59407;42.682;23.322;2023-10-31T13:32:41;6.82;;;2.97;;
71570;SDS011;59407;42.682;23.322;2023-10-31T13:35:07;5.93;;;2.90;;
71570;SDS011;59407;42.682;23.322;2023-10-31T13:37:37;5.53;;;2.10;;
71570;SDS011;59407;42.682;23.322;2023-10-31T13:40:02;5.00;;;2.80;;
71570;SDS011;59407;42.682;23.322;2023-10-31T13:42:28;9.30;;;3.88;;
71570;SDS011;59407;42.682;23.322;2023-10-31T13:44:55;4.33;;;2.47;;
71570;SDS011;59407;42.682;23.322;2023-10-31T13:47:20;5.63;;;2.55;;
71570;SDS011;59407;42.682;23.322;2023-10-31T13:49:46;6.40;;;2.80;;
71570;SDS011;59407;42.682;23.322;2023-10-31T13:52:12;5.53;;;2.45;;
71570;SDS011;59407;42.682;23.322;2023-10-31T13:54:37;7.87;;;2.93;;
71570;SDS011;59407;42.682;23.322;2023-10-31T13:57:03;8.43;;;3.42;;
71570;SDS011;59407;42.682;23.322;2023-10-31T13:59:29;6.03;;;2.80;;
71570;SDS011;59407;42.682;23.322;2023-10-31T14:01:54;5.60;;;2.63;;
71570;SDS011;59407;42.682;23.322;2023-10-31T14:04:20;5.25;;;2.47;;
71570;SDS011;59407;42.682;23.322;2023-10-31T14:06:46;8.50;;;3.50;;
71570;SDS011;59407;42.682;23.322;2023-10-31T14:09:11;9.57;;;2.83;;
71570;SDS011;59407;42.682;23.322;2023-10-31T14:11:37;8.33;;;3.60;;
71570;SDS011;59407;42.682;23.322;2023-10-31T14:14:03;7.72;;;4.25;;
71570;SDS011;59407;42.682;23.322;2023-10-31T14:16:37;8.70;;;3.80;;
71570;SDS011;59407;42.682;23.322;2023-10-31T14:19:06;6.38;;;4.22;;
71570;SDS011;59407;42.682;23.322;2023-10-31T14:21:32;9.30;;;4.28;;
71570;SDS011;59407;42.682;23.322;2023-10-31T14:23:58;7.40;;;3.63;;
71570;SDS011;59407;42.682;23.322;2023-10-31T14:26:24;10.85;;;5.47;;
71570;SDS011;59407;42.682;23.322;2023-10-31T14:28:51;20.85;;;9.27;;
71570;SDS011;59407;42.682;23.322;2023-10-31T14:31:17;9.60;;;3.50;;
71570;SDS011;59407;42.682;23.322;2023-10-31T14:33:42;7.88;;;3.45;;
71570;SDS011;59407;42.682;23.322;2023-10-31T14:36:08;8.10;;;3.90;;
71570;SDS011;59407;42.682;23.322;2023-10-31T14:38:37;8.68;;;5.03;;
71570;SDS011;59407;42.682;23.322;2023-10-31T14:41:03;9.15;;;4.40;;
71570;SDS011;59407;42.682;23.322;2023-10-31T14:43:29;11.18;;;5.63;;
71570;SDS011;59407;42.682;23.322;2023-10-31T14:45:54;9.43;;;4.23;;
71570;SDS011;59407;42.682;23.322;2023-10-31T14:48:20;12.57;;;4.78;;